sensor_id;sensor_type;location;lat;lon;timestamp;P1;durP1;ratioP1;P2;durP2;ratioP2
48987;SDS011;34799;51.440;-2.534;2022-09-09T00:04:04;7.03;;;3.63;;
48987;SDS011;34799;51.440;-2.534;2022-09-09T00:06:45;8.40;;;3.80;;
48987;SDS011;34799;51.440;-2.534;2022-09-09T00:09:35;13.32;;;4.55;;
48987;SDS011;34799;51.440;-2.534;2022-09-09T00:12:14;7.50;;;4.30;;
48987;SDS011;34799;51.440;-2.534;2022-09-09T00:14:55;8.82;;;3.70;;
48987;SDS011;34799;51.440;-2.534;2022-09-09T00:17:36;8.05;;;3.80;;
48987;SDS011;34799;51.440;-2.534;2022-09-09T00:20:32;11.32;;;3.78;;
48987;SDS011;34799;51.440;-2.534;2022-09-09T00:28:18;6.88;;;3.42;;
48987;SDS011;34799;51.440;-2.534;2022-09-09T00:30:46;7.15;;;2.85;;
48987;SDS011;34799;51.440;-2.534;2022-09-09T00:33:20;4.13;;;2.45;;
48987;SDS011;34799;51.440;-2.534;2022-09-09T00:35:52;7.43;;;2.95;;
48987;SDS011;34799;51.440;-2.534;2022-09-09T00:38:36;7.40;;;2.85;;
48987;SDS011;34799;51.440;-2.534;2022-09-09T00:53:05;6.18;;;1.73;;
48987;SDS011;34799;51.440;-2.534;2022-09-09T00:58:22;7.22;;;1.70;;
48987;SDS011;34799;51.440;-2.534;2022-09-09T01:00:57;7.85;;;2.03;;
48987;SDS011;34799;51.440;-2.534;2022-09-09T01:03:37;4.32;;;1.10;;
48987;SDS011;34799;51.440;-2.534;2022-09-09T01:06:32;4.22;;;1.95;;
48987;SDS011;34799;51.440;-2.534;2022-09-09T01:17:12;5.05;;;1.33;;
48987;SDS011;34799;51.440;-2.534;2022-09-09T01:20:08;6.05;;;1.80;;
48987;SDS011;34799;51.440;-2.534;2022-09-09T01:26:01;2.85;;;0.90;;
48987;SDS011;34799;51.440;-2.534;2022-09-09T01:28:46;4.65;;;1.10;;
48987;SDS011;34799;51.440;-2.534;2022-09-09T01:31:31;4.43;;;1.00;;
48987;SDS011;34799;51.440;-2.534;2022-09-09T01:34:09;4.82;;;0.88;;
48987;SDS011;34799;51.440;-2.534;2022-09-09T01:39:25;3.50;;;0.90;;
48987;SDS011;34799;51.440;-2.534;2022-09-09T01:42:02;4.25;;;0.88;;
48987;SDS011;34799;51.440;-2.534;2022-09-09T01:44:32;3.65;;;1.05;;
48987;SDS011;34799;51.440;-2.534;2022-09-09T01:47:03;2.35;;;1.00;;
48987;SDS011;34799;51.440;-2.534;2022-09-09T01:49:30;3.55;;;0.70;;
48987;SDS011;34799;51.440;-2.534;2022-09-09T01:52:08;2.75;;;1.30;;
48987;SDS011;34799;51.440;-2.534;2022-09-09T01:54:37;4.05;;;0.98;;
48987;SDS011;34799;51.440;-2.534;2022-09-09T02:00:07;1.77;;;0.68;;
48987;SDS011;34799;51.440;-2.534;2022-09-09T02:05:33;5.10;;;0.93;;
48987;SDS011;34799;51.440;-2.534;2022-09-09T02:11:06;3.15;;;0.63;;
48987;SDS011;34799;51.440;-2.534;2022-09-09T02:13:39;2.42;;;0.77;;
48987;SDS011;34799;51.440;-2.534;2022-09-09T02:21:23;2.28;;;0.50;;
48987;SDS011;34799;51.440;-2.534;2022-09-09T02:23:52;4.03;;;0.68;;
48987;SDS011;34799;51.440;-2.534;2022-09-09T02:26:19;4.88;;;0.55;;
48987;SDS011;34799;51.440;-2.534;2022-09-09T02:31:24;4.57;;;1.00;;
48987;SDS011;34799;51.440;-2.534;2022-09-09T02:33:59;4.07;;;0.50;;
48987;SDS011;34799;51.440;-2.534;2022-09-09T02:36:30;4.60;;;0.60;;
48987;SDS011;34799;51.440;-2.534;2022-09-09T02:39:00;3.15;;;0.60;;
48987;SDS011;34799;51.440;-2.534;2022-09-09T02:41:34;2.30;;;0.50;;
48987;SDS011;34799;51.440;-2.534;2022-09-09T02:44:14;2.72;;;0.65;;
48987;SDS011;34799;51.440;-2.534;2022-09-09T02:49:17;1.83;;;0.43;;
48987;SDS011;34799;51.440;-2.534;2022-09-09T02:52:26;2.83;;;0.55;;
48987;SDS011;34799;51.440;-2.534;2022-09-09T02:55:20;1.42;;;0.45;;
48987;SDS011;34799;51.440;-2.534;2022-09-09T02:58:04;5.00;;;0.50;;
48987;SDS011;34799;51.440;-2.534;2022-09-09T03:00:34;4.05;;;0.60;;
48987;SDS011;34799;51.440;-2.534;2022-09-09T03:03:04;2.95;;;0.50;;
48987;SDS011;34799;51.440;-2.534;2022-09-09T03:05:33;3.40;;;0.60;;
48987;SDS011;34799;51.440;-2.534;2022-09-09T03:08:00;4.47;;;0.57;;
48987;SDS011;34799;51.440;-2.534;2022-09-09T03:10:28;2.95;;;0.50;;
48987;SDS011;34799;51.440;-2.534;2022-09-09T03:12:57;2.10;;;0.43;;
48987;SDS011;34799;51.440;-2.534;2022-09-09T03:15:25;2.17;;;0.45;;
48987;SDS011;34799;51.440;-2.534;2022-09-09T03:17:57;2.85;;;0.45;;
48987;SDS011;34799;51.440;-2.534;2022-09-09T03:20:25;2.42;;;0.50;;
48987;SDS011;34799;51.440;-2.534;2022-09-09T03:22:55;2.72;;;0.90;;
48987;SDS011;34799;51.440;-2.534;2022-09-09T03:25:23;1.75;;;0.50;;
48987;SDS011;34799;51.440;-2.534;2022-09-09T03:27:52;3.55;;;0.50;;
48987;SDS011;34799;51.440;-2.534;2022-09-09T03:30:26;2.58;;;0.50;;
48987;SDS011;34799;51.440;-2.534;2022-09-09T03:32:56;2.83;;;0.40;;
48987;SDS011;34799;51.440;-2.534;2022-09-09T03:35:28;1.90;;;0.55;;
48987;SDS011;34799;51.440;-2.534;2022-09-09T03:37:57;1.75;;;0.43;;
48987;SDS011;34799;51.440;-2.534;2022-09-09T03:40:24;1.77;;;0.60;;
48987;SDS011;34799;51.440;-2.534;2022-09-09T03:42:52;5.55;;;0.70;;
48987;SDS011;34799;51.440;-2.534;2022-09-09T03:45:20;2.17;;;0.70;;
48987;SDS011;34799;51.440;-2.534;2022-09-09T03:47:46;2.78;;;0.52;;
48987;SDS011;34799;51.440;-2.534;2022-09-09T03:50:14;4.35;;;0.47;;
48987;SDS011;34799;51.440;-2.534;2022-09-09T03:52:45;5.78;;;0.75;;
48987;SDS011;34799;51.440;-2.534;2022-09-09T03:55:18;4.72;;;0.57;;
48987;SDS011;34799;51.440;-2.534;2022-09-09T03:57:45;2.47;;;0.75;;
48987;SDS011;34799;51.440;-2.534;2022-09-09T04:00:12;4.25;;;0.70;;
48987;SDS011;34799;51.440;-2.534;2022-09-09T04:02:50;1.60;;;0.57;;
48987;SDS011;34799;51.440;-2.534;2022-09-09T04:05:21;3.20;;;0.60;;
48987;SDS011;34799;51.440;-2.534;2022-09-09T04:07:48;3.55;;;0.70;;
48987;SDS011;34799;51.440;-2.534;2022-09-09T04:10:17;4.25;;;0.60;;
48987;SDS011;34799;51.440;-2.534;2022-09-09T04:12:44;2.88;;;0.70;;
48987;SDS011;34799;51.440;-2.534;2022-09-09T04:15:14;2.40;;;0.60;;
48987;SDS011;34799;51.440;-2.534;2022-09-09T04:17:43;3.30;;;0.80;;
48987;SDS011;34799;51.440;-2.534;2022-09-09T04:20:10;2.25;;;0.73;;
48987;SDS011;34799;51.440;-2.534;2022-09-09T04:22:38;2.58;;;0.60;;
48987;SDS011;34799;51.440;-2.534;2022-09-09T04:25:06;2.22;;;0.57;;
48987;SDS011;34799;51.440;-2.534;2022-09-09T04:27:35;6.07;;;0.90;;
48987;SDS011;34799;51.440;-2.534;2022-09-09T04:30:02;5.55;;;0.85;;
48987;SDS011;34799;51.440;-2.534;2022-09-09T04:32:32;2.83;;;0.70;;
48987;SDS011;34799;51.440;-2.534;2022-09-09T04:35:00;2.22;;;0.50;;
48987;SDS011;34799;51.440;-2.534;2022-09-09T04:37:28;3.67;;;0.55;;
48987;SDS011;34799;51.440;-2.534;2022-09-09T04:39:55;2.28;;;0.50;;
48987;SDS011;34799;51.440;-2.534;2022-09-09T04:42:22;1.67;;;0.35;;
48987;SDS011;34799;51.440;-2.534;2022-09-09T04:44:49;2.58;;;0.40;;
48987;SDS011;34799;51.440;-2.534;2022-09-09T04:47:16;3.22;;;0.30;;
48987;SDS011;34799;51.440;-2.534;2022-09-09T04:49:44;1.50;;;0.40;;
48987;SDS011;34799;51.440;-2.534;2022-09-09T04:52:12;5.68;;;0.75;;
48987;SDS011;34799;51.440;-2.534;2022-09-09T04:54:39;3.20;;;0.50;;
48987;SDS011;34799;51.440;-2.534;2022-09-09T04:57:06;3.10;;;0.57;;
48987;SDS011;34799;51.440;-2.534;2022-09-09T04:59:33;4.65;;;0.47;;
48987;SDS011;34799;51.440;-2.534;2022-09-09T05:02:02;5.45;;;0.50;;
48987;SDS011;34799;51.440;-2.534;2022-09-09T05:04:30;1.63;;;0.25;;
48987;SDS011;34799;51.440;-2.534;2022-09-09T05:06:57;2.80;;;0.35;;
48987;SDS011;34799;51.440;-2.534;2022-09-09T05:09:25;5.10;;;0.50;;
48987;SDS011;34799;51.440;-2.534;2022-09-09T05:11:54;2.08;;;0.30;;
48987;SDS011;34799;51.440;-2.534;2022-09-09T05:14:27;2.90;;;0.30;;
48987;SDS011;34799;51.440;-2.534;2022-09-09T05:16:55;4.22;;;0.30;;
48987;SDS011;34799;51.440;-2.534;2022-09-09T05:19:24;2.40;;;0.20;;
48987;SDS011;34799;51.440;-2.534;2022-09-09T05:21:52;4.78;;;0.50;;
48987;SDS011;34799;51.440;-2.534;2022-09-09T05:24:30;4.35;;;0.38;;
48987;SDS011;34799;51.440;-2.534;2022-09-09T05:26:59;1.63;;;0.28;;
48987;SDS011;34799;51.440;-2.534;2022-09-09T05:29:28;3.50;;;0.40;;
48987;SDS011;34799;51.440;-2.534;2022-09-09T05:31:56;2.75;;;0.57;;
48987;SDS011;34799;51.440;-2.534;2022-09-09T05:34:24;3.63;;;0.57;;
48987;SDS011;34799;51.440;-2.534;2022-09-09T05:36:52;2.33;;;0.40;;
48987;SDS011;34799;51.440;-2.534;2022-09-09T05:39:23;3.60;;;0.60;;
48987;SDS011;34799;51.440;-2.534;2022-09-09T05:41:50;0.82;;;0.30;;
48987;SDS011;34799;51.440;-2.534;2022-09-09T05:44:17;1.92;;;0.20;;
48987;SDS011;34799;51.440;-2.534;2022-09-09T05:46:45;5.05;;;0.60;;
48987;SDS011;34799;51.440;-2.534;2022-09-09T05:49:15;1.60;;;0.20;;
48987;SDS011;34799;51.440;-2.534;2022-09-09T05:51:43;2.45;;;0.30;;
48987;SDS011;34799;51.440;-2.534;2022-09-09T05:54:12;3.75;;;0.30;;
48987;SDS011;34799;51.440;-2.534;2022-09-09T05:56:46;2.92;;;0.30;;
48987;SDS011;34799;51.440;-2.534;2022-09-09T05:59:17;2.72;;;0.20;;
48987;SDS011;34799;51.440;-2.534;2022-09-09T06:01:44;1.77;;;0.30;;
48987;SDS011;34799;51.440;-2.534;2022-09-09T06:04:23;5.25;;;0.30;;
48987;SDS011;34799;51.440;-2.534;2022-09-09T06:06:52;2.55;;;0.25;;
48987;SDS011;34799;51.440;-2.534;2022-09-09T06:09:21;2.05;;;0.20;;
48987;SDS011;34799;51.440;-2.534;2022-09-09T06:11:48;1.98;;;0.20;;
48987;SDS011;34799;51.440;-2.534;2022-09-09T06:14:15;3.22;;;0.50;;
48987;SDS011;34799;51.440;-2.534;2022-09-09T06:16:47;3.03;;;0.30;;
48987;SDS011;34799;51.440;-2.534;2022-09-09T06:19:18;3.30;;;0.40;;
48987;SDS011;34799;51.440;-2.534;2022-09-09T06:21:47;4.72;;;0.73;;
48987;SDS011;34799;51.440;-2.534;2022-09-09T06:24:15;7.47;;;1.08;;
48987;SDS011;34799;51.440;-2.534;2022-09-09T06:26:45;2.33;;;0.50;;
48987;SDS011;34799;51.440;-2.534;2022-09-09T06:29:18;5.63;;;0.63;;
48987;SDS011;34799;51.440;-2.534;2022-09-09T06:31:46;1.85;;;0.40;;
48987;SDS011;34799;51.440;-2.534;2022-09-09T06:34:25;5.13;;;0.50;;
48987;SDS011;34799;51.440;-2.534;2022-09-09T06:36:55;6.40;;;0.63;;
48987;SDS011;34799;51.440;-2.534;2022-09-09T06:39:25;3.75;;;0.52;;
48987;SDS011;34799;51.440;-2.534;2022-09-09T06:41:55;6.53;;;0.57;;
48987;SDS011;34799;51.440;-2.534;2022-09-09T06:44:51;2.85;;;0.52;;
48987;SDS011;34799;51.440;-2.534;2022-09-09T06:47:35;3.33;;;0.32;;
48987;SDS011;34799;51.440;-2.534;2022-09-09T06:50:03;1.92;;;0.50;;
48987;SDS011;34799;51.440;-2.534;2022-09-09T06:52:34;6.18;;;0.45;;
48987;SDS011;34799;51.440;-2.534;2022-09-09T06:55:01;7.88;;;0.60;;
48987;SDS011;34799;51.440;-2.534;2022-09-09T06:57:29;4.13;;;0.60;;
48987;SDS011;34799;51.440;-2.534;2022-09-09T07:00:02;2.00;;;0.60;;
48987;SDS011;34799;51.440;-2.534;2022-09-09T07:02:30;2.70;;;0.45;;
48987;SDS011;34799;51.440;-2.534;2022-09-09T07:04:57;3.38;;;0.52;;
48987;SDS011;34799;51.440;-2.534;2022-09-09T07:07:25;2.40;;;0.50;;
48987;SDS011;34799;51.440;-2.534;2022-09-09T07:09:53;4.90;;;0.30;;
48987;SDS011;34799;51.440;-2.534;2022-09-09T07:12:20;3.45;;;0.80;;
48987;SDS011;34799;51.440;-2.534;2022-09-09T07:14:54;2.70;;;0.68;;
48987;SDS011;34799;51.440;-2.534;2022-09-09T07:17:21;3.22;;;0.80;;
48987;SDS011;34799;51.440;-2.534;2022-09-09T07:19:48;4.75;;;0.70;;
48987;SDS011;34799;51.440;-2.534;2022-09-09T07:22:18;2.65;;;0.57;;
48987;SDS011;34799;51.440;-2.534;2022-09-09T07:24:46;6.32;;;0.50;;
48987;SDS011;34799;51.440;-2.534;2022-09-09T07:27:14;2.20;;;0.28;;
48987;SDS011;34799;51.440;-2.534;2022-09-09T07:29:41;2.78;;;0.40;;
48987;SDS011;34799;51.440;-2.534;2022-09-09T07:32:10;2.50;;;0.40;;
48987;SDS011;34799;51.440;-2.534;2022-09-09T07:34:37;3.40;;;0.50;;
48987;SDS011;34799;51.440;-2.534;2022-09-09T07:37:04;3.45;;;0.50;;
48987;SDS011;34799;51.440;-2.534;2022-09-09T07:39:32;5.72;;;0.60;;
48987;SDS011;34799;51.440;-2.534;2022-09-09T07:42:02;3.08;;;0.68;;
48987;SDS011;34799;51.440;-2.534;2022-09-09T07:44:31;3.13;;;0.65;;
48987;SDS011;34799;51.440;-2.534;2022-09-09T07:47:06;6.38;;;0.47;;
48987;SDS011;34799;51.440;-2.534;2022-09-09T07:49:48;5.40;;;0.50;;
48987;SDS011;34799;51.440;-2.534;2022-09-09T07:52:21;6.70;;;0.50;;
48987;SDS011;34799;51.440;-2.534;2022-09-09T07:54:52;3.28;;;0.50;;
48987;SDS011;34799;51.440;-2.534;2022-09-09T07:57:19;6.20;;;0.60;;
48987;SDS011;34799;51.440;-2.534;2022-09-09T07:59:50;5.85;;;0.60;;
48987;SDS011;34799;51.440;-2.534;2022-09-09T08:02:18;3.58;;;0.50;;
48987;SDS011;34799;51.440;-2.534;2022-09-09T08:04:45;2.78;;;0.50;;
48987;SDS011;34799;51.440;-2.534;2022-09-09T08:07:15;3.63;;;0.30;;
48987;SDS011;34799;51.440;-2.534;2022-09-09T08:09:48;1.95;;;0.20;;
48987;SDS011;34799;51.440;-2.534;2022-09-09T08:12:23;1.75;;;0.20;;
48987;SDS011;34799;51.440;-2.534;2022-09-09T08:14:51;2.40;;;0.20;;
48987;SDS011;34799;51.440;-2.534;2022-09-09T08:17:21;6.47;;;0.40;;
48987;SDS011;34799;51.440;-2.534;2022-09-09T08:19:48;3.47;;;0.22;;
48987;SDS011;34799;51.440;-2.534;2022-09-09T08:22:20;4.50;;;0.47;;
48987;SDS011;34799;51.440;-2.534;2022-09-09T08:24:50;2.05;;;0.40;;
48987;SDS011;34799;51.440;-2.534;2022-09-09T08:27:18;3.33;;;0.60;;
48987;SDS011;34799;51.440;-2.534;2022-09-09T08:29:45;2.30;;;0.52;;
48987;SDS011;34799;51.440;-2.534;2022-09-09T08:32:13;5.03;;;0.20;;
48987;SDS011;34799;51.440;-2.534;2022-09-09T08:34:40;1.70;;;0.15;;
48987;SDS011;34799;51.440;-2.534;2022-09-09T08:37:15;1.17;;;0.10;;
48987;SDS011;34799;51.440;-2.534;2022-09-09T08:39:44;2.67;;;0.28;;
48987;SDS011;34799;51.440;-2.534;2022-09-09T08:47:46;1.80;;;0.17;;
48987;SDS011;34799;51.440;-2.534;2022-09-09T08:50:20;2.90;;;0.10;;
48987;SDS011;34799;51.440;-2.534;2022-09-09T08:53:03;2.78;;;0.10;;
48987;SDS011;34799;51.440;-2.534;2022-09-09T08:55:47;0.40;;;0.10;;
48987;SDS011;34799;51.440;-2.534;2022-09-09T08:58:26;1.15;;;0.13;;
48987;SDS011;34799;51.440;-2.534;2022-09-09T09:12:16;1.00;;;0.10;;
48987;SDS011;34799;51.440;-2.534;2022-09-09T09:14:48;2.33;;;0.20;;
48987;SDS011;34799;51.440;-2.534;2022-09-09T09:17:20;2.70;;;0.10;;
48987;SDS011;34799;51.440;-2.534;2022-09-09T09:19:51;0.95;;;0.10;;
48987;SDS011;34799;51.440;-2.534;2022-09-09T09:33:23;1.02;;;0.45;;
48987;SDS011;34799;51.440;-2.534;2022-09-09T09:35:56;1.33;;;0.20;;
48987;SDS011;34799;51.440;-2.534;2022-09-09T09:38:24;1.75;;;0.20;;
48987;SDS011;34799;51.440;-2.534;2022-09-09T09:41:15;2.05;;;0.30;;
48987;SDS011;34799;51.440;-2.534;2022-09-09T09:43:53;4.68;;;0.20;;
48987;SDS011;34799;51.440;-2.534;2022-09-09T09:46:23;0.85;;;0.20;;
48987;SDS011;34799;51.440;-2.534;2022-09-09T09:49:00;2.55;;;0.30;;
48987;SDS011;34799;51.440;-2.534;2022-09-09T09:51:32;1.02;;;0.20;;
48987;SDS011;34799;51.440;-2.534;2022-09-09T09:54:08;2.65;;;0.20;;
48987;SDS011;34799;51.440;-2.534;2022-09-09T09:56:41;6.10;;;0.40;;
48987;SDS011;34799;51.440;-2.534;2022-09-09T10:02:14;0.80;;;0.20;;
48987;SDS011;34799;51.440;-2.534;2022-09-09T10:04:47;2.28;;;0.30;;
48987;SDS011;34799;51.440;-2.534;2022-09-09T10:07:19;1.35;;;0.30;;
48987;SDS011;34799;51.440;-2.534;2022-09-09T10:09:50;2.78;;;0.30;;
48987;SDS011;34799;51.440;-2.534;2022-09-09T10:18:14;0.50;;;0.20;;
48987;SDS011;34799;51.440;-2.534;2022-09-09T10:20:54;1.95;;;0.10;;
48987;SDS011;34799;51.440;-2.534;2022-09-09T10:23:42;2.08;;;0.30;;
48987;SDS011;34799;51.440;-2.534;2022-09-09T10:35:14;2.00;;;0.20;;
48987;SDS011;34799;51.440;-2.534;2022-09-09T10:37:58;2.05;;;0.50;;
48987;SDS011;34799;51.440;-2.534;2022-09-09T10:51:28;2.90;;;0.17;;
48987;SDS011;34799;51.440;-2.534;2022-09-09T10:56:36;2.47;;;0.30;;
48987;SDS011;34799;51.440;-2.534;2022-09-09T10:59:07;3.10;;;0.40;;
48987;SDS011;34799;51.440;-2.534;2022-09-09T11:01:57;1.55;;;0.40;;
48987;SDS011;34799;51.440;-2.534;2022-09-09T11:04:30;2.67;;;0.20;;
48987;SDS011;34799;51.440;-2.534;2022-09-09T11:07:09;2.45;;;0.22;;
48987;SDS011;34799;51.440;-2.534;2022-09-09T11:09:41;1.98;;;0.43;;
48987;SDS011;34799;51.440;-2.534;2022-09-09T11:12:13;3.30;;;0.50;;
48987;SDS011;34799;51.440;-2.534;2022-09-09T11:14:47;3.78;;;0.40;;
48987;SDS011;34799;51.440;-2.534;2022-09-09T11:17:22;2.23;;;0.70;;
48987;SDS011;34799;51.440;-2.534;2022-09-09T11:19:53;5.32;;;0.50;;
48987;SDS011;34799;51.440;-2.534;2022-09-09T11:30:27;2.33;;;0.60;;
48987;SDS011;34799;51.440;-2.534;2022-09-09T11:41:54;2.47;;;0.30;;
48987;SDS011;34799;51.440;-2.534;2022-09-09T11:44:50;1.23;;;0.30;;
48987;SDS011;34799;51.440;-2.534;2022-09-09T11:47:26;4.32;;;0.32;;
48987;SDS011;34799;51.440;-2.534;2022-09-09T11:50:08;2.35;;;0.40;;
48987;SDS011;34799;51.440;-2.534;2022-09-09T11:52:43;2.17;;;0.40;;
48987;SDS011;34799;51.440;-2.534;2022-09-09T11:55:28;1.80;;;0.40;;
48987;SDS011;34799;51.440;-2.534;2022-09-09T11:58:00;0.70;;;0.30;;
48987;SDS011;34799;51.440;-2.534;2022-09-09T12:00:33;3.00;;;0.55;;
48987;SDS011;34799;51.440;-2.534;2022-09-09T12:03:30;0.88;;;0.43;;
48987;SDS011;34799;51.440;-2.534;2022-09-09T12:08:37;1.65;;;0.50;;
48987;SDS011;34799;51.440;-2.534;2022-09-09T12:11:09;4.93;;;0.80;;
48987;SDS011;34799;51.440;-2.534;2022-09-09T12:13:38;2.75;;;0.80;;
48987;SDS011;34799;51.440;-2.534;2022-09-09T12:16:05;2.30;;;0.70;;
48987;SDS011;34799;51.440;-2.534;2022-09-09T12:18:52;2.47;;;0.73;;
48987;SDS011;34799;51.440;-2.534;2022-09-09T12:24:18;2.80;;;0.82;;
48987;SDS011;34799;51.440;-2.534;2022-09-09T12:27:01;4.65;;;0.73;;
48987;SDS011;34799;51.440;-2.534;2022-09-09T12:35:04;3.83;;;0.50;;
48987;SDS011;34799;51.440;-2.534;2022-09-09T12:37:43;2.10;;;0.55;;
48987;SDS011;34799;51.440;-2.534;2022-09-09T12:40:25;1.48;;;0.38;;
48987;SDS011;34799;51.440;-2.534;2022-09-09T12:42:52;1.23;;;0.32;;
48987;SDS011;34799;51.440;-2.534;2022-09-09T12:45:22;14.32;;;1.10;;
48987;SDS011;34799;51.440;-2.534;2022-09-09T12:50:21;2.95;;;0.32;;
48987;SDS011;34799;51.440;-2.534;2022-09-09T12:52:53;2.38;;;0.40;;
48987;SDS011;34799;51.440;-2.534;2022-09-09T12:55:30;1.42;;;0.30;;
48987;SDS011;34799;51.440;-2.534;2022-09-09T12:58:00;2.25;;;0.20;;
48987;SDS011;34799;51.440;-2.534;2022-09-09T13:00:32;2.80;;;0.55;;
48987;SDS011;34799;51.440;-2.534;2022-09-09T13:03:01;3.03;;;0.50;;
48987;SDS011;34799;51.440;-2.534;2022-09-09T13:05:46;1.33;;;0.40;;
48987;SDS011;34799;51.440;-2.534;2022-09-09T13:08:16;1.92;;;0.30;;
48987;SDS011;34799;51.440;-2.534;2022-09-09T13:11:01;1.25;;;0.45;;
48987;SDS011;34799;51.440;-2.534;2022-09-09T13:13:35;3.28;;;0.45;;
48987;SDS011;34799;51.440;-2.534;2022-09-09T13:16:05;1.67;;;0.50;;
48987;SDS011;34799;51.440;-2.534;2022-09-09T13:18:45;4.22;;;0.65;;
48987;SDS011;34799;51.440;-2.534;2022-09-09T13:21:12;8.05;;;1.30;;
48987;SDS011;34799;51.440;-2.534;2022-09-09T13:23:40;2.58;;;0.63;;
48987;SDS011;34799;51.440;-2.534;2022-09-09T13:26:23;3.63;;;0.82;;
48987;SDS011;34799;51.440;-2.534;2022-09-09T13:28:55;3.63;;;0.82;;
48987;SDS011;34799;51.440;-2.534;2022-09-09T13:31:41;2.58;;;0.70;;
48987;SDS011;34799;51.440;-2.534;2022-09-09T13:37:06;2.90;;;1.40;;
48987;SDS011;34799;51.440;-2.534;2022-09-09T13:42:27;4.78;;;1.08;;
48987;SDS011;34799;51.440;-2.534;2022-09-09T13:44:56;3.72;;;0.85;;
48987;SDS011;34799;51.440;-2.534;2022-09-09T13:47:33;2.53;;;0.50;;
48987;SDS011;34799;51.440;-2.534;2022-09-09T13:52:47;2.73;;;0.70;;
48987;SDS011;34799;51.440;-2.534;2022-09-09T13:55:20;2.97;;;0.90;;
48987;SDS011;34799;51.440;-2.534;2022-09-09T13:58:02;3.90;;;0.95;;
48987;SDS011;34799;51.440;-2.534;2022-09-09T14:00:32;1.02;;;0.40;;
48987;SDS011;34799;51.440;-2.534;2022-09-09T14:03:00;2.90;;;0.50;;
48987;SDS011;34799;51.440;-2.534;2022-09-09T14:05:30;1.98;;;0.30;;
48987;SDS011;34799;51.440;-2.534;2022-09-09T14:07:59;4.22;;;0.60;;
48987;SDS011;34799;51.440;-2.534;2022-09-09T14:10:30;2.80;;;0.90;;
48987;SDS011;34799;51.440;-2.534;2022-09-09T14:12:57;2.92;;;0.80;;
48987;SDS011;34799;51.440;-2.534;2022-09-09T14:15:24;2.47;;;0.63;;
48987;SDS011;34799;51.440;-2.534;2022-09-09T14:17:51;3.42;;;0.80;;
48987;SDS011;34799;51.440;-2.534;2022-09-09T14:20:18;5.38;;;1.23;;
48987;SDS011;34799;51.440;-2.534;2022-09-09T14:22:46;5.07;;;1.35;;
48987;SDS011;34799;51.440;-2.534;2022-09-09T14:25:13;5.18;;;1.25;;
48987;SDS011;34799;51.440;-2.534;2022-09-09T14:27:41;4.03;;;1.08;;
48987;SDS011;34799;51.440;-2.534;2022-09-09T14:30:08;2.40;;;1.10;;
48987;SDS011;34799;51.440;-2.534;2022-09-09T14:32:36;1.50;;;0.40;;
48987;SDS011;34799;51.440;-2.534;2022-09-09T14:35:05;1.45;;;0.47;;
48987;SDS011;34799;51.440;-2.534;2022-09-09T14:37:32;1.45;;;0.47;;
48987;SDS011;34799;51.440;-2.534;2022-09-09T14:39:59;2.17;;;0.75;;
48987;SDS011;34799;51.440;-2.534;2022-09-09T14:42:26;2.55;;;0.88;;
48987;SDS011;34799;51.440;-2.534;2022-09-09T14:44:53;1.65;;;0.50;;
48987;SDS011;34799;51.440;-2.534;2022-09-09T14:47:20;1.83;;;0.80;;
48987;SDS011;34799;51.440;-2.534;2022-09-09T14:49:48;1.88;;;0.63;;
48987;SDS011;34799;51.440;-2.534;2022-09-09T14:52:16;4.15;;;1.17;;
48987;SDS011;34799;51.440;-2.534;2022-09-09T14:54:43;2.85;;;0.63;;
48987;SDS011;34799;51.440;-2.534;2022-09-09T14:57:10;2.45;;;0.80;;
48987;SDS011;34799;51.440;-2.534;2022-09-09T14:59:37;1.27;;;0.60;;
48987;SDS011;34799;51.440;-2.534;2022-09-09T15:02:05;2.70;;;0.90;;
48987;SDS011;34799;51.440;-2.534;2022-09-09T15:04:34;2.30;;;0.30;;
48987;SDS011;34799;51.440;-2.534;2022-09-09T15:07:01;0.38;;;0.10;;
48987;SDS011;34799;51.440;-2.534;2022-09-09T15:09:28;0.30;;;0.10;;
48987;SDS011;34799;51.440;-2.534;2022-09-09T15:11:55;1.40;;;0.10;;
48987;SDS011;34799;51.440;-2.534;2022-09-09T15:14:23;0.28;;;0.10;;
48987;SDS011;34799;51.440;-2.534;2022-09-09T15:16:51;0.47;;;0.10;;
48987;SDS011;34799;51.440;-2.534;2022-09-09T15:19:18;0.38;;;0.10;;
48987;SDS011;34799;51.440;-2.534;2022-09-09T15:21:45;3.08;;;0.30;;
48987;SDS011;34799;51.440;-2.534;2022-09-09T15:24:12;1.88;;;0.20;;
48987;SDS011;34799;51.440;-2.534;2022-09-09T15:26:41;1.17;;;0.20;;
48987;SDS011;34799;51.440;-2.534;2022-09-09T15:29:08;3.75;;;0.30;;
48987;SDS011;34799;51.440;-2.534;2022-09-09T15:31:35;2.38;;;0.57;;
48987;SDS011;34799;51.440;-2.534;2022-09-09T15:34:04;3.78;;;0.40;;
48987;SDS011;34799;51.440;-2.534;2022-09-09T15:36:34;2.58;;;0.30;;
48987;SDS011;34799;51.440;-2.534;2022-09-09T15:39:04;2.15;;;0.55;;
48987;SDS011;34799;51.440;-2.534;2022-09-09T15:41:33;6.78;;;0.60;;
48987;SDS011;34799;51.440;-2.534;2022-09-09T15:44:01;1.27;;;0.40;;
48987;SDS011;34799;51.440;-2.534;2022-09-09T15:46:32;2.53;;;0.70;;
48987;SDS011;34799;51.440;-2.534;2022-09-09T15:49:11;2.05;;;0.35;;
48987;SDS011;34799;51.440;-2.534;2022-09-09T15:51:40;3.20;;;0.30;;
48987;SDS011;34799;51.440;-2.534;2022-09-09T15:54:10;1.30;;;0.20;;
48987;SDS011;34799;51.440;-2.534;2022-09-09T15:56:46;2.28;;;0.52;;
48987;SDS011;34799;51.440;-2.534;2022-09-09T15:59:16;1.95;;;0.40;;
48987;SDS011;34799;51.440;-2.534;2022-09-09T16:01:44;1.23;;;0.30;;
48987;SDS011;34799;51.440;-2.534;2022-09-09T16:04:11;2.35;;;0.20;;
48987;SDS011;34799;51.440;-2.534;2022-09-09T16:06:38;3.00;;;0.20;;
48987;SDS011;34799;51.440;-2.534;2022-09-09T16:09:06;2.60;;;0.30;;
48987;SDS011;34799;51.440;-2.534;2022-09-09T16:11:35;0.88;;;0.45;;
48987;SDS011;34799;51.440;-2.534;2022-09-09T16:14:03;3.72;;;0.20;;
48987;SDS011;34799;51.440;-2.534;2022-09-09T16:16:33;1.38;;;0.20;;
48987;SDS011;34799;51.440;-2.534;2022-09-09T16:19:03;0.95;;;0.25;;
48987;SDS011;34799;51.440;-2.534;2022-09-09T16:21:38;1.45;;;0.30;;
48987;SDS011;34799;51.440;-2.534;2022-09-09T16:24:07;4.28;;;0.47;;
48987;SDS011;34799;51.440;-2.534;2022-09-09T16:26:36;3.05;;;0.22;;
48987;SDS011;34799;51.440;-2.534;2022-09-09T16:29:07;3.10;;;0.30;;
48987;SDS011;34799;51.440;-2.534;2022-09-09T16:31:35;5.28;;;0.85;;
48987;SDS011;34799;51.440;-2.534;2022-09-09T16:34:03;1.58;;;0.20;;
48987;SDS011;34799;51.440;-2.534;2022-09-09T16:36:31;1.92;;;0.22;;
48987;SDS011;34799;51.440;-2.534;2022-09-09T16:39:03;4.15;;;0.20;;
48987;SDS011;34799;51.440;-2.534;2022-09-09T16:41:32;1.45;;;0.10;;
48987;SDS011;34799;51.440;-2.534;2022-09-09T16:44:00;2.75;;;0.30;;
48987;SDS011;34799;51.440;-2.534;2022-09-09T16:46:34;5.60;;;0.82;;
48987;SDS011;34799;51.440;-2.534;2022-09-09T16:49:03;3.38;;;0.40;;
48987;SDS011;34799;51.440;-2.534;2022-09-09T16:51:34;3.38;;;0.25;;
48987;SDS011;34799;51.440;-2.534;2022-09-09T16:54:07;3.53;;;0.45;;
48987;SDS011;34799;51.440;-2.534;2022-09-09T16:56:35;3.13;;;0.35;;
48987;SDS011;34799;51.440;-2.534;2022-09-09T16:59:07;3.50;;;0.30;;
48987;SDS011;34799;51.440;-2.534;2022-09-09T17:01:37;5.72;;;0.45;;
48987;SDS011;34799;51.440;-2.534;2022-09-09T17:04:08;5.55;;;0.40;;
48987;SDS011;34799;51.440;-2.534;2022-09-09T17:06:37;0.93;;;0.20;;
48987;SDS011;34799;51.440;-2.534;2022-09-09T17:09:06;1.00;;;0.30;;
48987;SDS011;34799;51.440;-2.534;2022-09-09T17:11:36;2.92;;;0.57;;
48987;SDS011;34799;51.440;-2.534;2022-09-09T17:14:05;5.40;;;0.57;;
48987;SDS011;34799;51.440;-2.534;2022-09-09T17:16:35;2.10;;;0.50;;
48987;SDS011;34799;51.440;-2.534;2022-09-09T17:19:05;1.80;;;0.30;;
48987;SDS011;34799;51.440;-2.534;2022-09-09T17:21:35;1.85;;;0.70;;
48987;SDS011;34799;51.440;-2.534;2022-09-09T17:24:08;3.50;;;0.30;;
48987;SDS011;34799;51.440;-2.534;2022-09-09T17:26:37;3.15;;;0.50;;
48987;SDS011;34799;51.440;-2.534;2022-09-09T17:29:04;1.77;;;0.60;;
48987;SDS011;34799;51.440;-2.534;2022-09-09T17:31:31;3.25;;;0.50;;
48987;SDS011;34799;51.440;-2.534;2022-09-09T17:34:01;3.83;;;0.68;;